Terminal Aerodrome Forecast
Issued by NWS Mt. Holly, NJ

Home | Current Version | Previous Version | Text Only | Print | Product List | Glossary On
Versions: 1 2 3 4 5 6 7 8 9 10 11 12 13 14 15 16 17
000
FTUS41 KPHI 040554
TAFRDG
TAF
KRDG 040554Z 0406/0506 20005KT P6SM VCSH SCT050 BKN080
      TEMPO 0406/0407 29015G25KT 3SM -TSRA BKN040CB
     FM040900 VRB03KT 6SM BR BKN080
      TEMPO 0410/0412 5SM BR
     FM041300 25008G16KT P6SM SCT080
     FM042100 28012G18KT P6SM SCT040
     FM050000 30004KT P6SM SKC=

USA.gov is the U.S. government's official web portal to all federal, state and local government web resources and services.